createdAt,value
2022-12-20T00:00:08.772Z,100.00
2022-12-20T00:02:40.311Z,100.00
2022-12-20T00:05:10.830Z,100.00
2022-12-20T00:07:41.320Z,100.00
2022-12-20T00:10:15.026Z,100.00
2022-12-20T00:12:47.123Z,100.00
2022-12-20T00:15:22.381Z,100.00
2022-12-20T00:17:56.282Z,100.00
2022-12-20T00:20:29.277Z,100.00
2022-12-20T00:23:00.098Z,100.00
2022-12-20T00:25:33.456Z,100.00
2022-12-20T00:28:02.704Z,100.00
2022-12-20T00:30:35.932Z,100.00
2022-12-20T00:33:06.258Z,100.00
2022-12-20T00:35:36.644Z,100.00
2022-12-20T00:38:07.139Z,100.00
2022-12-20T00:40:37.703Z,100.00
2022-12-20T00:43:08.031Z,100.00
2022-12-20T00:45:38.646Z,100.00
2022-12-20T00:48:09.087Z,100.00
2022-12-20T00:50:41.982Z,100.00
2022-12-20T00:53:12.400Z,100.00
2022-12-20T00:55:44.751Z,100.00
2022-12-20T00:58:15.227Z,100.00
2022-12-20T01:00:50.622Z,100.00
2022-12-20T01:03:18.735Z,100.00
2022-12-20T01:05:58.269Z,100.00
2022-12-20T01:08:31.346Z,100.00
2022-12-20T01:11:04.247Z,100.00
2022-12-20T01:13:37.988Z,100.00
2022-12-20T01:16:14.686Z,100.00
2022-12-20T01:18:46.129Z,100.00
2022-12-20T01:21:22.819Z,100.00
2022-12-20T01:23:54.818Z,100.00
2022-12-20T01:26:27.740Z,100.00
2022-12-20T01:29:00.716Z,100.00
2022-12-20T01:31:37.189Z,100.00
2022-12-20T01:34:16.302Z,100.00
2022-12-20T01:36:50.288Z,100.00
2022-12-20T01:40:15.153Z,100.00
2022-12-20T01:45:48.516Z,100.00
2022-12-20T01:48:24.970Z,100.00
2022-12-20T05:05:15.277Z,100.00
2022-12-20T05:07:45.665Z,100.00
2022-12-20T05:10:16.406Z,100.00
2022-12-20T05:12:47.049Z,100.00
2022-12-20T05:15:17.657Z,100.00
2022-12-20T05:17:49.225Z,100.00
2022-12-20T05:20:19.609Z,100.00
2022-12-20T05:22:49.895Z,100.00
2022-12-20T05:25:20.230Z,100.00
2022-12-20T05:27:50.561Z,100.00
2022-12-20T05:30:20.884Z,100.00
2022-12-20T05:32:51.122Z,100.00
2022-12-20T05:35:21.403Z,100.00
2022-12-20T05:37:51.753Z,100.00
2022-12-20T05:40:21.886Z,100.00
2022-12-20T05:42:52.278Z,100.00
2022-12-20T05:45:22.747Z,100.00
2022-12-20T05:47:53.669Z,100.00
2022-12-20T05:50:24.368Z,100.00
2022-12-20T05:52:54.649Z,100.00
2022-12-20T05:55:25.032Z,100.00
2022-12-20T05:57:56.237Z,100.00
2022-12-20T06:00:26.747Z,100.00
2022-12-20T06:02:57.161Z,100.00
2022-12-20T06:05:27.739Z,100.00
2022-12-20T06:07:58.024Z,100.00
2022-12-20T06:10:48.991Z,100.00
2022-12-20T06:13:19.830Z,100.00
2022-12-20T06:15:50.078Z,100.00
2022-12-20T06:18:20.246Z,100.00
2022-12-20T06:20:52.283Z,100.00
2022-12-20T06:23:22.714Z,100.00
2022-12-20T06:25:53.349Z,100.00
2022-12-20T06:28:23.637Z,100.00
2022-12-20T06:31:14.641Z,100.00
2022-12-20T06:33:47.253Z,100.00
2022-12-20T06:36:21.026Z,100.00
2022-12-20T06:39:05.993Z,100.00
2022-12-20T06:41:33.291Z,100.00
2022-12-20T06:44:06.699Z,100.00
2022-12-20T06:46:38.382Z,100.00
2022-12-20T06:49:09.243Z,100.00
2022-12-20T06:51:39.612Z,100.00
2022-12-20T06:54:09.757Z,100.00
2022-12-20T06:56:41.685Z,100.00
2022-12-20T06:59:12.422Z,100.00
2022-12-20T07:01:44.565Z,100.00
2022-12-20T07:07:44.812Z,100.00
2022-12-20T07:10:12.422Z,100.00
2022-12-20T07:12:47.819Z,100.00
2022-12-20T07:15:14.909Z,100.00
2022-12-20T07:17:45.728Z,100.00
2022-12-20T07:20:17.672Z,100.00
2022-12-20T07:22:50.838Z,100.00
2022-12-20T07:25:21.098Z,100.00
2022-12-20T07:27:51.624Z,100.00
2022-12-20T07:30:22.171Z,100.00
2022-12-20T07:32:52.559Z,100.00
2022-12-20T07:35:23.141Z,100.00
2022-12-20T07:37:53.505Z,100.00
2022-12-20T07:40:25.114Z,100.00
2022-12-20T07:42:55.966Z,100.00
2022-12-20T07:45:26.291Z,100.00
2022-12-20T07:47:56.675Z,100.00
2022-12-20T07:50:28.778Z,100.00
2022-12-20T07:52:59.696Z,100.00
2022-12-20T07:55:30.857Z,100.00
2022-12-20T07:58:07.106Z,100.00
2022-12-20T08:00:38.865Z,100.00
2022-12-20T08:03:18.322Z,100.00
2022-12-20T08:05:51.561Z,100.00
2022-12-20T08:08:22.956Z,100.00
2022-12-20T08:11:00.444Z,100.00
2022-12-20T08:13:31.976Z,100.00
2022-12-20T08:16:02.157Z,100.00
2022-12-20T08:18:32.518Z,100.00
2022-12-20T08:21:02.955Z,100.00
2022-12-20T08:23:33.749Z,100.00
2022-12-20T08:26:04.271Z,100.00
2022-12-20T08:28:36.038Z,100.00
2022-12-20T08:31:08.411Z,100.00
2022-12-20T08:33:39.497Z,100.00
2022-12-20T08:36:12.403Z,100.00
2022-12-20T08:38:43.502Z,100.00
2022-12-20T08:41:15.598Z,100.00
2022-12-20T08:43:45.999Z,100.00
2022-12-20T08:46:16.419Z,100.00
2022-12-20T08:48:49.584Z,100.00
2022-12-20T08:51:19.932Z,100.00
2022-12-20T08:53:50.212Z,100.00
2022-12-20T08:56:20.602Z,100.00
2022-12-20T08:58:50.983Z,100.00
2022-12-20T09:01:22.188Z,100.00
2022-12-20T09:03:53.021Z,100.00
2022-12-20T09:06:23.929Z,100.00
2022-12-20T09:08:54.164Z,100.00
2022-12-20T09:11:26.456Z,100.00
2022-12-20T09:13:59.024Z,100.00
2022-12-20T09:16:31.966Z,100.00
2022-12-20T09:19:06.106Z,100.00
2022-12-20T09:21:35.895Z,100.00
2022-12-20T09:24:06.513Z,100.00
2022-12-20T09:26:36.847Z,100.00
2022-12-20T09:29:07.216Z,100.00
2022-12-20T09:31:37.737Z,100.00
2022-12-20T09:34:09.684Z,100.00
2022-12-20T09:36:40.603Z,100.00
2022-12-20T09:39:12.009Z,100.00
2022-12-20T09:41:44.192Z,100.00
2022-12-20T09:44:29.592Z,100.00
2022-12-20T09:47:11.055Z,100.00
2022-12-20T09:49:43.960Z,100.00
2022-12-20T09:55:23.016Z,100.00
2022-12-20T09:57:56.207Z,100.00
2022-12-20T10:00:26.680Z,100.00
2022-12-20T10:03:06.489Z,95.32
2022-12-20T10:05:41.424Z,90.49
2022-12-20T10:08:18.282Z,82.67
2022-12-20T10:10:58.079Z,82.67
2022-12-20T10:14:06.439Z,79.47
2022-12-20T10:16:57.529Z,76.77
2022-12-20T10:19:52.636Z,72.87
2022-12-20T10:22:28.947Z,73.82
2022-12-20T10:25:05.029Z,73.94
2022-12-20T10:27:35.770Z,74.22
2022-12-20T10:30:19.486Z,76.65
2022-12-20T10:32:52.818Z,75.11
2022-12-20T10:35:40.832Z,73.30
2022-12-20T10:38:15.642Z,74.38
2022-12-20T10:41:21.113Z,74.38
2022-12-20T10:43:44.542Z,73.74
2022-12-20T10:46:16.699Z,74.72
2022-12-20T10:48:49.252Z,72.22
2022-12-20T10:51:22.392Z,70.87
2022-12-20T10:57:03.023Z,69.21
2022-12-20T10:59:40.697Z,69.66
2022-12-20T14:55:34.424Z,100.00
2022-12-20T14:58:10.561Z,100.00
2022-12-20T15:00:49.986Z,100.00
2022-12-20T15:03:23.300Z,100.00
2022-12-20T15:06:01.237Z,100.00
2022-12-20T15:08:33.146Z,100.00
2022-12-20T15:13:54.002Z,100.00
2022-12-20T15:16:26.829Z,100.00
2022-12-20T15:19:10.985Z,100.00
2022-12-20T15:21:45.870Z,100.00
2022-12-20T15:24:21.947Z,100.00
2022-12-20T15:26:52.831Z,99.52
2022-12-20T15:29:26.460Z,98.27
2022-12-20T15:32:17.638Z,95.70
2022-12-20T15:34:56.829Z,95.49
2022-12-20T15:37:28.834Z,88.81
2022-12-20T15:39:59.340Z,88.81
2022-12-20T15:42:37.107Z,86.57
2022-12-20T15:45:11.024Z,85.19
2022-12-20T15:47:49.772Z,85.75
2022-12-20T15:50:20.309Z,85.88
2022-12-20T15:52:50.807Z,86.06
2022-12-20T15:55:27.031Z,84.86
2022-12-20T15:58:20.707Z,81.12
2022-12-20T16:00:53.371Z,81.12
2022-12-20T16:03:31.976Z,75.27
2022-12-20T16:06:02.538Z,75.27
2022-12-20T16:08:34.543Z,78.53
2022-12-20T16:11:08.164Z,78.53
2022-12-20T16:13:38.724Z,80.18
2022-12-20T16:16:14.070Z,83.11
2022-12-20T16:18:54.156Z,83.93
2022-12-20T16:21:27.996Z,83.93
2022-12-20T16:24:09.435Z,83.60
2022-12-20T16:26:39.751Z,84.75
2022-12-20T16:42:22.701Z,84.76
2022-12-20T16:44:53.846Z,85.27
2022-12-20T16:47:24.276Z,84.32
2022-12-20T16:49:55.390Z,85.42
2022-12-20T16:52:25.806Z,86.46
2022-12-20T16:54:56.424Z,87.11
2022-12-20T16:57:29.159Z,86.07
2022-12-20T17:00:00.712Z,86.90
2022-12-20T17:05:35.236Z,88.80
2022-12-20T17:11:33.523Z,88.21
2022-12-20T17:14:10.403Z,88.21
2022-12-20T17:16:36.892Z,88.46
2022-12-20T17:19:18.441Z,88.79
2022-12-20T17:24:39.704Z,89.81
2022-12-20T17:27:17.004Z,89.97
2022-12-20T17:29:48.341Z,91.05
2022-12-20T17:32:43.756Z,90.37
2022-12-20T17:35:37.885Z,90.76
2022-12-20T17:38:08.743Z,90.25
2022-12-20T17:40:39.487Z,90.69
2022-12-20T17:43:12.313Z,89.89
2022-12-20T17:45:43.481Z,91.59
2022-12-20T17:48:14.678Z,91.59
2022-12-20T17:50:45.089Z,91.23
2022-12-20T17:54:22.818Z,91.33
2022-12-20T18:00:38.449Z,89.54
2022-12-20T18:03:20.060Z,88.25
2022-12-20T18:05:43.701Z,88.25
2022-12-20T18:08:21.476Z,87.79
2022-12-20T18:10:54.496Z,88.48
2022-12-20T18:13:31.621Z,87.86
2022-12-20T18:19:25.417Z,89.76
2022-12-20T18:21:58.401Z,90.27
2022-12-20T18:24:40.394Z,91.21
2022-12-20T18:27:30.566Z,91.21
2022-12-20T18:29:57.224Z,89.29
2022-12-20T18:32:34.738Z,89.29
2022-12-20T18:35:27.727Z,88.50
2022-12-20T18:55:25.133Z,86.97
2022-12-20T18:57:58.533Z,87.15
2022-12-20T19:00:28.802Z,86.93
2022-12-20T19:03:00.481Z,86.72
2022-12-20T19:05:35.526Z,86.37
2022-12-20T19:08:05.977Z,86.35
2022-12-20T19:10:44.415Z,86.17
2022-12-20T19:13:12.893Z,86.17
2022-12-20T19:15:46.216Z,85.52
2022-12-20T19:18:24.110Z,85.58
2022-12-20T19:21:06.694Z,85.61
2022-12-20T19:28:28.469Z,85.53
2022-12-20T19:29:52.831Z,85.19
2022-12-20T19:32:31.830Z,85.60
2022-12-20T19:35:16.595Z,85.81
2022-12-20T19:37:37.458Z,85.81
2022-12-20T19:40:30.645Z,86.38
2022-12-20T19:43:03.000Z,87.24
2022-12-20T19:45:42.280Z,88.68
2022-12-20T19:48:17.771Z,88.68
2022-12-20T19:50:50.753Z,90.71
2022-12-20T19:53:24.232Z,92.09
2022-12-20T19:58:42.065Z,93.25
2022-12-20T20:01:23.088Z,93.62
2022-12-20T20:03:55.351Z,94.65
2022-12-20T20:06:26.717Z,94.65
2022-12-20T20:08:58.168Z,94.96
2022-12-20T20:11:28.749Z,95.04
2022-12-20T20:13:59.319Z,95.58
2022-12-20T20:16:29.681Z,96.12
2022-12-20T20:19:00.170Z,98.93
2022-12-20T20:21:30.473Z,98.58
2022-12-20T20:24:00.882Z,97.63
2022-12-20T20:26:32.248Z,99.71
2022-12-20T20:29:03.496Z,99.71
2022-12-20T20:31:38.453Z,100.00
2022-12-20T20:34:11.928Z,100.00
2022-12-20T20:36:45.350Z,100.00
2022-12-20T20:39:17.301Z,100.00
2022-12-20T20:44:59.916Z,100.00
2022-12-20T20:48:01.230Z,100.00
2022-12-20T20:54:12.941Z,100.00
2022-12-20T21:00:23.616Z,100.00
2022-12-20T21:08:35.034Z,100.00
2022-12-20T21:15:02.292Z,100.00
2022-12-20T21:20:44.553Z,100.00
2022-12-20T21:23:34.072Z,100.00
2022-12-20T21:26:04.855Z,100.00
2022-12-20T21:28:38.891Z,100.00
2022-12-20T21:34:14.523Z,100.00
2022-12-20T21:38:38.999Z,100.00
2022-12-20T21:39:39.617Z,100.00
2022-12-20T21:47:51.113Z,100.00
2022-12-20T21:50:21.418Z,100.00
2022-12-20T21:52:55.617Z,100.00
2022-12-20T21:55:28.659Z,100.00
2022-12-20T21:58:01.839Z,100.00
2022-12-20T22:00:32.425Z,100.00
2022-12-20T22:05:55.417Z,100.00
2022-12-20T22:08:33.573Z,100.00
2022-12-20T22:11:09.913Z,100.00
2022-12-20T22:16:52.382Z,100.00
2022-12-20T22:19:22.796Z,100.00
2022-12-20T22:21:57.988Z,100.00
2022-12-20T22:24:25.192Z,100.00
2022-12-20T22:26:55.406Z,100.00
2022-12-20T22:29:26.022Z,100.00
2022-12-20T22:31:56.406Z,100.00
2022-12-20T22:34:38.250Z,100.00
2022-12-20T22:37:11.160Z,100.00
2022-12-20T22:39:41.668Z,100.00
2022-12-20T22:42:12.013Z,100.00
2022-12-20T22:44:42.909Z,100.00
2022-12-20T22:47:13.066Z,100.00
2022-12-20T22:49:43.694Z,100.00
2022-12-20T22:52:14.159Z,100.00
2022-12-20T22:54:44.637Z,100.00
2022-12-20T22:57:18.734Z,100.00
2022-12-20T22:59:50.530Z,100.00
2022-12-20T23:02:21.497Z,100.00
2022-12-20T23:04:52.171Z,100.00
2022-12-20T23:07:23.621Z,100.00
2022-12-20T23:09:56.452Z,100.00
2022-12-20T23:12:27.190Z,100.00
2022-12-20T23:15:04.289Z,100.00
2022-12-20T23:17:36.919Z,100.00
2022-12-20T23:20:12.259Z,100.00
2022-12-20T23:22:42.533Z,100.00
2022-12-20T23:25:20.744Z,100.00
2022-12-20T23:27:52.979Z,100.00
2022-12-20T23:30:24.921Z,100.00
2022-12-20T23:32:55.523Z,100.00
2022-12-20T23:35:26.078Z,100.00
2022-12-20T23:37:56.474Z,100.00
2022-12-20T23:40:26.958Z,100.00
2022-12-20T23:42:57.829Z,100.00
2022-12-20T23:45:28.235Z,100.00
2022-12-20T23:47:59.793Z,100.00
2022-12-20T23:50:31.553Z,100.00
2022-12-20T23:53:04.645Z,100.00
2022-12-20T23:55:35.265Z,100.00
2022-12-20T23:58:06.046Z,100.00
